createdAt,value
2023-02-27T00:00:30.981Z,0
2023-02-27T00:01:32.274Z,0
2023-02-27T00:02:31.700Z,0
2023-02-27T00:03:31.653Z,0
2023-02-27T00:04:31.484Z,0
2023-02-27T00:05:31.500Z,0
2023-02-27T00:06:31.134Z,0
2023-02-27T00:07:31.092Z,0
2023-02-27T00:08:31.519Z,0
2023-02-27T00:09:31.040Z,0
2023-02-27T00:10:31.031Z,0
2023-02-27T00:11:32.260Z,0
2023-02-27T00:12:30.709Z,0
2023-02-27T00:13:31.203Z,0
2023-02-27T00:14:30.922Z,0
2023-02-27T00:15:31.154Z,0
2023-02-27T00:16:31.059Z,0
2023-02-27T00:17:31.109Z,0
2023-02-27T00:18:31.094Z,0
2023-02-27T00:19:31.076Z,0
2023-02-27T00:20:30.861Z,0
2023-02-27T00:21:31.634Z,0
2023-02-27T00:22:30.775Z,0
2023-02-27T00:23:30.728Z,0
2023-02-27T00:24:30.946Z,0
2023-02-27T00:25:30.675Z,0
2023-02-27T00:26:30.667Z,0
2023-02-27T00:27:30.898Z,0
2023-02-27T00:28:30.917Z,0
2023-02-27T00:29:30.626Z,0
2023-02-27T00:31:00.020Z,0
2023-02-27T00:31:31.897Z,0
2023-02-27T00:32:31.119Z,0
2023-02-27T00:33:30.512Z,0
2023-02-27T00:34:30.719Z,0
2023-02-27T00:35:30.205Z,0
2023-02-27T00:36:30.476Z,0
2023-02-27T00:37:30.682Z,0
2023-02-27T00:38:30.603Z,0
2023-02-27T00:39:30.600Z,0
2023-02-27T00:40:30.332Z,0
2023-02-27T00:41:30.850Z,0
2023-02-27T00:42:30.270Z,0
2023-02-27T00:43:30.026Z,0
2023-02-27T00:44:30.478Z,0
2023-02-27T00:45:30.466Z,0
2023-02-27T00:46:30.382Z,0
2023-02-27T00:47:29.951Z,0
2023-02-27T00:48:30.148Z,0
2023-02-27T00:49:30.145Z,0
2023-02-27T00:50:30.084Z,0
2023-02-27T00:51:30.917Z,0
2023-02-27T00:52:30.374Z,0
2023-02-27T00:53:30.082Z,0
2023-02-27T00:54:29.989Z,0
2023-02-27T00:55:31.651Z,0
2023-02-27T00:56:30.368Z,0
2023-02-27T00:57:29.875Z,0
2023-02-27T00:58:29.907Z,0
2023-02-27T00:59:29.888Z,0
2023-02-27T01:00:30.233Z,0
2023-02-27T01:01:30.955Z,0
2023-02-27T01:02:29.806Z,0
2023-02-27T01:03:30.051Z,0
2023-02-27T01:04:30.037Z,0
2023-02-27T01:05:29.490Z,0
2023-02-27T01:06:29.713Z,0
2023-02-27T01:07:29.448Z,0
2023-02-27T01:08:30.001Z,0
2023-02-27T01:09:29.492Z,0
2023-02-27T01:10:29.623Z,0
2023-02-27T01:11:30.678Z,0
2023-02-27T01:12:29.569Z,0
2023-02-27T01:13:29.805Z,0
2023-02-27T01:14:29.532Z,0
2023-02-27T01:15:29.787Z,0
2023-02-27T01:16:29.913Z,0
2023-02-27T01:17:29.713Z,0
2023-02-27T01:18:29.452Z,0
2023-02-27T01:19:29.422Z,0
2023-02-27T01:20:29.650Z,0
2023-02-27T01:21:30.081Z,0
2023-02-27T01:22:29.390Z,0
2023-02-27T01:23:29.621Z,0
2023-02-27T01:24:29.645Z,0
2023-02-27T01:25:29.581Z,0
2023-02-27T01:26:29.016Z,0
2023-02-27T01:27:28.971Z,0
2023-02-27T01:28:29.208Z,0
2023-02-27T01:29:29.178Z,0
2023-02-27T01:30:29.244Z,0
2023-02-27T01:31:30.332Z,0
2023-02-27T01:32:29.527Z,0
2023-02-27T01:33:29.355Z,0
2023-02-27T01:34:29.311Z,0
2023-02-27T01:35:29.300Z,0
2023-02-27T01:36:29.034Z,0
2023-02-27T01:37:28.493Z,0
2023-02-27T01:38:29.241Z,0
2023-02-27T01:39:28.943Z,0
2023-02-27T01:40:29.249Z,0
2023-02-27T01:41:29.997Z,0
2023-02-27T01:42:28.891Z,0
2023-02-27T01:43:29.105Z,0
2023-02-27T01:44:28.823Z,0
2023-02-27T01:45:29.107Z,0
2023-02-27T01:46:28.773Z,0
2023-02-27T01:47:28.775Z,0
2023-02-27T01:48:28.730Z,0
2023-02-27T01:49:28.965Z,0
2023-02-27T01:50:28.421Z,0
2023-02-27T01:51:29.366Z,0
2023-02-27T01:52:28.648Z,0
2023-02-27T01:53:28.855Z,0
2023-02-27T01:54:28.612Z,0
2023-02-27T01:55:28.809Z,0
2023-02-27T01:56:28.661Z,0
2023-02-27T01:57:28.550Z,0
2023-02-27T01:58:28.254Z,0
2023-02-27T01:59:28.727Z,0
2023-02-27T02:00:28.714Z,0
2023-02-27T02:01:29.487Z,0
2023-02-27T02:02:28.396Z,0
2023-02-27T02:03:28.378Z,0
2023-02-27T02:04:28.366Z,0
2023-02-27T02:05:28.582Z,0
2023-02-27T02:06:28.046Z,0
2023-02-27T02:07:28.012Z,0
2023-02-27T02:08:28.248Z,0
2023-02-27T02:09:28.235Z,0
2023-02-27T02:10:27.959Z,0
2023-02-27T02:11:29.031Z,0
2023-02-27T02:12:28.499Z,0
2023-02-27T02:13:28.197Z,0
2023-02-27T02:14:28.130Z,0
2023-02-27T02:15:28.086Z,0
2023-02-27T02:16:28.260Z,0
2023-02-27T02:17:28.059Z,0
2023-02-27T02:18:28.280Z,0
2023-02-27T02:19:28.251Z,0
2023-02-27T02:20:27.960Z,0
2023-02-27T02:21:28.907Z,0
2023-02-27T02:22:27.682Z,0
2023-02-27T02:23:27.629Z,0
2023-02-27T02:24:27.880Z,0
2023-02-27T02:25:27.873Z,0
2023-02-27T02:26:33.787Z,0
2023-02-27T02:27:27.809Z,0
2023-02-27T02:28:28.120Z,0
2023-02-27T02:29:27.529Z,0
2023-02-27T02:30:27.927Z,0
2023-02-27T02:31:28.711Z,0
2023-02-27T02:32:27.528Z,0
2023-02-27T02:33:27.935Z,0
2023-02-27T02:34:27.642Z,0
2023-02-27T02:35:27.916Z,0
2023-02-27T02:36:27.696Z,0
2023-02-27T02:37:27.549Z,0
2023-02-27T02:38:27.784Z,0
2023-02-27T02:39:27.526Z,0
2023-02-27T02:40:27.814Z,0
2023-02-27T02:41:28.009Z,0
2023-02-27T02:42:27.724Z,0
2023-02-27T02:43:27.770Z,0
2023-02-27T02:44:27.733Z,0
2023-02-27T02:45:27.409Z,0
2023-02-27T02:46:27.387Z,0
2023-02-27T02:47:27.527Z,0
2023-02-27T02:48:27.777Z,0
2023-02-27T02:49:27.509Z,0
2023-02-27T02:50:27.733Z,0
2023-02-27T02:51:28.425Z,0
2023-02-27T02:52:27.142Z,0
2023-02-27T02:53:38.382Z,0
2023-02-27T02:54:27.661Z,0
2023-02-27T02:55:27.326Z,0
2023-02-27T02:56:27.318Z,0
2023-02-27T02:57:26.781Z,0
2023-02-27T02:58:27.300Z,0
2023-02-27T02:59:27.255Z,0
2023-02-27T03:00:27.572Z,0
2023-02-27T03:01:28.561Z,0
2023-02-27T03:02:27.191Z,0
2023-02-27T03:03:27.194Z,0
2023-02-27T03:04:27.333Z,0
2023-02-27T03:05:27.355Z,0
2023-02-27T03:06:27.343Z,0
2023-02-27T03:07:27.640Z,0
2023-02-27T03:08:27.034Z,0
2023-02-27T03:09:26.518Z,0
2023-02-27T03:10:27.100Z,0
2023-02-27T03:11:27.450Z,0
2023-02-27T03:12:27.215Z,0
2023-02-27T03:13:26.652Z,0
2023-02-27T03:14:26.638Z,0
2023-02-27T03:15:26.899Z,0
2023-02-27T03:16:26.953Z,0
2023-02-27T03:17:26.846Z,0
2023-02-27T03:18:27.085Z,0
2023-02-27T03:19:26.757Z,0
2023-02-27T03:20:26.739Z,0
2023-02-27T03:21:26.914Z,0
2023-02-27T03:22:26.435Z,0
2023-02-27T03:23:26.933Z,0
2023-02-27T03:24:26.932Z,0
2023-02-27T03:25:26.623Z,0
2023-02-27T03:26:26.395Z,0
2023-02-27T03:27:26.303Z,0
2023-02-27T03:28:26.322Z,0
2023-02-27T03:29:26.544Z,0
2023-02-27T03:30:26.551Z,0
2023-02-27T03:31:27.692Z,0
2023-02-27T03:32:27.182Z,0
2023-02-27T03:49:43.319Z,0
2023-02-27T03:50:42.935Z,0
2023-02-27T03:51:43.154Z,0
2023-02-27T03:52:42.617Z,0
2023-02-27T03:53:42.870Z,0
2023-02-27T03:54:42.850Z,0
2023-02-27T03:55:42.853Z,0
2023-02-27T03:56:42.774Z,0
2023-02-27T03:57:42.750Z,0
2023-02-27T03:58:42.982Z,0
2023-02-27T03:59:42.942Z,0
2023-02-27T04:00:42.965Z,0
2023-02-27T04:01:42.846Z,0
2023-02-27T04:02:42.483Z,0
2023-02-27T04:03:42.347Z,0
2023-02-27T04:04:42.703Z,0
2023-02-27T04:05:42.933Z,0
2023-02-27T04:06:42.281Z,0
2023-02-27T04:07:42.772Z,0
2023-02-27T04:08:42.507Z,0
2023-02-27T04:09:42.459Z,0
2023-02-27T04:10:42.709Z,0
2023-02-27T04:11:42.155Z,0
2023-02-27T04:12:43.817Z,0
2023-02-27T04:13:42.633Z,0
2023-02-27T04:14:42.098Z,0
2023-02-27T04:15:42.313Z,0
2023-02-27T04:16:42.569Z,0
2023-02-27T04:17:42.282Z,0
2023-02-27T04:18:42.515Z,0
2023-02-27T04:19:42.218Z,0
2023-02-27T04:20:42.201Z,0
2023-02-27T04:21:42.548Z,0
2023-02-27T04:22:41.936Z,0
2023-02-27T04:23:41.880Z,0
2023-02-27T04:24:42.138Z,0
2023-02-27T04:25:42.334Z,0
2023-02-27T04:26:41.790Z,0
2023-02-27T04:27:42.324Z,0
2023-02-27T04:28:41.769Z,0
2023-02-27T04:29:41.991Z,0
2023-02-27T04:30:41.955Z,0
2023-02-27T04:31:42.532Z,0
2023-02-27T04:32:42.553Z,0
2023-02-27T04:33:41.639Z,0
2023-02-27T04:34:41.866Z,0
2023-02-27T04:35:42.102Z,0
2023-02-27T04:36:42.104Z,0
2023-02-27T04:37:42.171Z,0
2023-02-27T04:38:41.765Z,0
2023-02-27T04:39:41.493Z,0
2023-02-27T04:40:41.728Z,0
2023-02-27T04:41:41.712Z,0
2023-02-27T04:42:41.938Z,0
2023-02-27T04:43:41.667Z,0
2023-02-27T04:44:41.395Z,0
2023-02-27T04:45:41.837Z,0
2023-02-27T04:46:41.600Z,0
2023-02-27T04:47:41.838Z,0
2023-02-27T04:48:41.553Z,0
2023-02-27T04:49:41.519Z,0
2023-02-27T04:50:41.773Z,0
2023-02-27T04:51:41.470Z,0
2023-02-27T04:52:41.200Z,0
2023-02-27T04:53:41.770Z,0
2023-02-27T04:54:41.675Z,0
2023-02-27T04:55:41.381Z,0
2023-02-27T04:56:41.372Z,0
2023-02-27T04:57:42.248Z,0
2023-02-27T04:58:41.953Z,0
2023-02-27T04:59:41.919Z,0
2023-02-27T05:00:41.912Z,0
2023-02-27T05:01:42.362Z,0
2023-02-27T05:02:42.650Z,0
2023-02-27T05:03:42.088Z,0
2023-02-27T05:04:41.796Z,0
2023-02-27T05:05:41.771Z,0
2023-02-27T05:06:42.768Z,0
2023-02-27T05:07:42.838Z,0
2023-02-27T05:08:42.713Z,0
2023-02-27T05:09:43.064Z,0
2023-02-27T05:10:42.914Z,0
2023-02-27T05:11:42.873Z,0
2023-02-27T05:12:42.997Z,0
2023-02-27T05:13:43.227Z,0
2023-02-27T05:14:43.208Z,0
2023-02-27T05:15:43.123Z,0
2023-02-27T05:16:43.491Z,0
2023-02-27T05:17:43.331Z,0
2023-02-27T05:18:42.679Z,0
2023-02-27T05:19:42.842Z,0
2023-02-27T05:20:42.826Z,0
2023-02-27T05:21:42.765Z,0
2023-02-27T05:22:43.021Z,0
2023-02-27T05:23:42.480Z,0
2023-02-27T05:24:42.976Z,0
2023-02-27T05:25:43.091Z,0
2023-02-27T05:26:42.702Z,0
2023-02-27T05:27:42.902Z,0
2023-02-27T05:28:44.105Z,0
2023-02-27T05:29:42.848Z,0
2023-02-27T05:30:42.837Z,0
2023-02-27T05:31:42.826Z,0
2023-02-27T05:32:43.039Z,0
2023-02-27T05:33:42.760Z,4
2023-02-27T05:34:42.496Z,4
2023-02-27T05:35:42.742Z,4
2023-02-27T05:36:42.439Z,0
2023-02-27T05:37:42.434Z,4
2023-02-27T05:38:42.638Z,4
2023-02-27T05:39:42.402Z,4
2023-02-27T05:40:42.501Z,4
2023-02-27T05:41:42.671Z,8
2023-02-27T05:42:42.290Z,8
2023-02-27T05:43:42.530Z,8
2023-02-27T05:44:42.291Z,12
2023-02-27T05:45:42.465Z,12
2023-02-27T05:46:42.486Z,20
2023-02-27T05:47:42.196Z,24
2023-02-27T05:48:41.913Z,28
2023-02-27T05:49:42.135Z,32
2023-02-27T05:50:42.127Z,40
2023-02-27T05:51:42.087Z,52
2023-02-27T05:52:42.332Z,60
2023-02-27T05:53:42.313Z,68
2023-02-27T05:54:42.286Z,76
2023-02-27T05:55:42.005Z,88
2023-02-27T05:56:42.245Z,100
2023-02-27T05:57:42.448Z,112
2023-02-27T05:58:42.224Z,128
2023-02-27T05:59:41.442Z,148
2023-02-27T06:00:41.923Z,164
2023-02-27T06:01:42.371Z,180
2023-02-27T06:02:41.933Z,192
2023-02-27T06:03:41.924Z,208
2023-02-27T06:04:41.838Z,228
2023-02-27T06:05:41.786Z,252
2023-02-27T06:06:42.066Z,272
2023-02-27T06:07:41.747Z,288
2023-02-27T06:08:41.735Z,300
2023-02-27T06:09:41.955Z,320
2023-02-27T06:10:41.416Z,348
2023-02-27T06:11:41.646Z,376
2023-02-27T06:12:41.633Z,396
2023-02-27T06:13:44.531Z,420
2023-02-27T06:14:41.577Z,440
2023-02-27T06:15:41.568Z,460
2023-02-27T06:16:41.883Z,496
2023-02-27T06:17:41.769Z,520
2023-02-27T06:18:41.746Z,544
2023-02-27T06:19:41.740Z,588
2023-02-27T06:20:41.467Z,628
2023-02-27T06:21:41.421Z,652
2023-02-27T06:22:41.654Z,668
2023-02-27T06:23:41.655Z,688
2023-02-27T06:24:41.370Z,728
2023-02-27T06:25:41.626Z,784
2023-02-27T06:26:40.826Z,832
2023-02-27T06:27:41.305Z,872
2023-02-27T06:28:41.012Z,920
2023-02-27T06:29:41.617Z,988
2023-02-27T06:30:41.520Z,1100
2023-02-27T06:31:41.222Z,1208
2023-02-27T06:32:41.436Z,1288
2023-02-27T06:33:41.173Z,1320
2023-02-27T06:34:41.156Z,1380
2023-02-27T06:35:40.887Z,1408
2023-02-27T06:36:41.091Z,1468
2023-02-27T06:37:41.070Z,1640
2023-02-27T06:38:41.303Z,1772
2023-02-27T06:39:41.018Z,1744
2023-02-27T06:40:41.007Z,1748
2023-02-27T06:41:41.289Z,1716
2023-02-27T06:42:40.970Z,1692
2023-02-27T06:43:41.189Z,1672
2023-02-27T06:44:41.156Z,1720
2023-02-27T06:45:41.235Z,1860
2023-02-27T06:46:41.434Z,1916
2023-02-27T06:47:40.857Z,1844
2023-02-27T06:48:40.861Z,1828
2023-02-27T06:49:40.825Z,1912
2023-02-27T06:50:41.129Z,2048
2023-02-27T06:51:40.514Z,2072
2023-02-27T06:52:41.241Z,1952
2023-02-27T06:53:40.698Z,1812
2023-02-27T06:54:40.682Z,1788
2023-02-27T06:55:40.919Z,1804
2023-02-27T06:56:40.648Z,1820
2023-02-27T06:57:40.654Z,1844
2023-02-27T06:58:40.846Z,1840
2023-02-27T06:59:40.602Z,1876
2023-02-27T07:00:40.620Z,1996
2023-02-27T07:01:41.222Z,2088
2023-02-27T07:02:40.331Z,2196
2023-02-27T07:03:40.728Z,2328
2023-02-27T07:04:40.643Z,2448
2023-02-27T07:05:40.450Z,2408
2023-02-27T07:07:43.645Z,2560
2023-02-27T07:09:13.067Z,2652
2023-02-27T07:09:53.923Z,2436
2023-02-27T07:10:54.180Z,2328
2023-02-27T07:11:54.157Z,2284
2023-02-27T07:12:54.151Z,2264
2023-02-27T07:13:53.839Z,2264
2023-02-27T07:14:54.071Z,2196
2023-02-27T07:15:54.093Z,2268
2023-02-27T07:16:54.126Z,2412
2023-02-27T07:17:53.500Z,2436
2023-02-27T07:18:53.727Z,2412
2023-02-27T07:19:53.710Z,2344
2023-02-27T07:20:53.955Z,2332
2023-02-27T07:21:53.411Z,2296
2023-02-27T07:22:53.669Z,2240
2023-02-27T07:23:54.035Z,2188
2023-02-27T07:24:53.350Z,2164
2023-02-27T07:25:53.830Z,2224
2023-02-27T07:26:53.807Z,2272
2023-02-27T07:27:53.525Z,2216
2023-02-27T07:28:53.763Z,2160
2023-02-27T07:29:53.562Z,2108
2023-02-27T07:30:53.915Z,2064
2023-02-27T07:31:53.367Z,2060
2023-02-27T07:32:53.881Z,2028
2023-02-27T07:33:53.730Z,2056
2023-02-27T07:34:53.708Z,2040
2023-02-27T07:35:53.458Z,1964
2023-02-27T07:36:53.371Z,2000
2023-02-27T07:37:53.595Z,2000
2023-02-27T07:38:53.282Z,2004
2023-02-27T07:39:53.277Z,2008
2023-02-27T07:40:53.506Z,2016
2023-02-27T07:41:52.988Z,2032
2023-02-27T07:42:55.545Z,2056
2023-02-27T07:43:53.444Z,2076
2023-02-27T07:44:52.912Z,2104
2023-02-27T07:45:53.151Z,2116
2023-02-27T07:46:53.390Z,2120
2023-02-27T07:47:52.939Z,2152
2023-02-27T07:48:53.479Z,2192
2023-02-27T07:49:53.312Z,2248
2023-02-27T07:50:52.776Z,2236
2023-02-27T07:51:53.066Z,2272
2023-02-27T07:52:52.786Z,2280
2023-02-27T07:53:53.242Z,2280
2023-02-27T07:54:52.950Z,2428
2023-02-27T07:55:53.196Z,2712
2023-02-27T07:56:52.944Z,3268
2023-02-27T07:57:53.143Z,4476
2023-02-27T07:58:52.857Z,5376
2023-02-27T07:59:52.840Z,5748
2023-02-27T08:00:52.836Z,5816
2023-02-27T08:01:53.100Z,5868
2023-02-27T08:02:53.349Z,5340
2023-02-27T08:03:52.768Z,5368
2023-02-27T08:04:53.288Z,5184
2023-02-27T08:05:52.980Z,5380
2023-02-27T08:06:52.982Z,5164
2023-02-27T08:07:52.937Z,5024
2023-02-27T08:08:52.930Z,5368
2023-02-27T08:09:52.384Z,5720
2023-02-27T08:10:52.104Z,5596
2023-02-27T08:11:55.700Z,5728
2023-02-27T08:12:52.859Z,5616
2023-02-27T08:14:07.956Z,5528
2023-02-27T08:14:52.563Z,5312
2023-02-27T08:15:52.639Z,5364
2023-02-27T08:16:52.511Z,5068
2023-02-27T08:17:52.478Z,5052
2023-02-27T08:18:52.464Z,4884
2023-02-27T08:19:52.435Z,4596
2023-02-27T08:20:52.756Z,5060
2023-02-27T08:21:52.437Z,4840
2023-02-27T08:22:52.664Z,4608
2023-02-27T08:23:52.426Z,4780
2023-02-27T08:24:52.116Z,4524
2023-02-27T08:25:52.320Z,5068
2023-02-27T08:26:52.575Z,5292
2023-02-27T08:27:52.551Z,5048
2023-02-27T08:28:52.246Z,4584
2023-02-27T08:29:52.237Z,5176
2023-02-27T08:30:51.971Z,5620
2023-02-27T08:31:53.728Z,5840
2023-02-27T08:32:52.209Z,5812
2023-02-27T08:34:10.802Z,5572
2023-02-27T08:34:52.111Z,6180
2023-02-27T08:35:52.536Z,6096
2023-02-27T08:36:52.587Z,5892
2023-02-27T08:37:52.324Z,5800
2023-02-27T08:38:52.303Z,5932
2023-02-27T08:39:52.007Z,5460
2023-02-27T08:40:51.751Z,4992
2023-02-27T08:41:51.988Z,5264
2023-02-27T08:42:52.479Z,4992
2023-02-27T08:43:52.663Z,4764
2023-02-27T08:44:52.157Z,5336
2023-02-27T08:45:52.889Z,5600
2023-02-27T08:46:52.644Z,5160
2023-02-27T08:47:52.393Z,5776
2023-02-27T08:48:52.318Z,5976
2023-02-27T08:49:52.298Z,5828
2023-02-27T08:50:52.290Z,5544
2023-02-27T08:51:52.244Z,6148
2023-02-27T08:52:52.575Z,5024
2023-02-27T08:53:52.226Z,4184
2023-02-27T08:54:52.176Z,4564
2023-02-27T08:55:52.441Z,6696
2023-02-27T08:56:52.174Z,7800
2023-02-27T08:57:52.374Z,8408
2023-02-27T08:58:52.365Z,8452
2023-02-27T08:59:52.378Z,9188
2023-02-27T09:00:52.327Z,6952
2023-02-27T09:01:52.042Z,5772
2023-02-27T09:02:52.548Z,4940
2023-02-27T09:03:52.258Z,4344
2023-02-27T09:04:52.040Z,3700
2023-02-27T09:05:52.226Z,3720
2023-02-27T09:06:52.201Z,4164
2023-02-27T09:07:51.681Z,4460
2023-02-27T09:08:52.342Z,4720
2023-02-27T09:09:54.806Z,4808
2023-02-27T09:10:51.894Z,4324
2023-02-27T09:11:51.334Z,4392
2023-02-27T09:12:51.892Z,5304
2023-02-27T09:13:51.554Z,6476
2023-02-27T09:14:52.035Z,6984
2023-02-27T09:15:52.042Z,6440
2023-02-27T09:16:51.979Z,6180
2023-02-27T09:17:51.476Z,6492
2023-02-27T09:18:51.748Z,6640
2023-02-27T09:19:51.687Z,6228
2023-02-27T09:20:51.669Z,6580
2023-02-27T09:21:51.917Z,6844
2023-02-27T09:22:51.885Z,5808
2023-02-27T09:23:51.613Z,5180
2023-02-27T09:24:51.952Z,5504
2023-02-27T09:25:51.836Z,6180
2023-02-27T09:26:54.942Z,6620
2023-02-27T09:27:51.790Z,6452
2023-02-27T09:28:51.756Z,6904
2023-02-27T09:29:51.741Z,7424
2023-02-27T09:30:51.499Z,7064
2023-02-27T09:31:52.345Z,7748
2023-02-27T09:32:52.592Z,8224
2023-02-27T09:33:52.016Z,8456
2023-02-27T09:34:51.983Z,8092
2023-02-27T09:35:52.129Z,8088
2023-02-27T09:36:51.926Z,7956
2023-02-27T09:37:52.251Z,8580
2023-02-27T09:38:51.644Z,8672
2023-02-27T09:39:53.467Z,8432
2023-02-27T09:40:52.228Z,8444
2023-02-27T09:41:52.100Z,9116
2023-02-27T09:42:52.225Z,9936
2023-02-27T09:43:51.559Z,10492
2023-02-27T09:44:54.552Z,10768
2023-02-27T09:45:52.133Z,10716
2023-02-27T09:46:52.034Z,10908
2023-02-27T09:47:51.747Z,11056
2023-02-27T09:48:51.472Z,10656
2023-02-27T09:49:51.679Z,10156
2023-02-27T09:50:51.451Z,10152
2023-02-27T09:51:53.355Z,10028
2023-02-27T09:52:51.624Z,10056
2023-02-27T09:53:51.874Z,10028
2023-02-27T09:54:51.441Z,9648
2023-02-27T09:55:51.846Z,9592
2023-02-27T09:56:51.894Z,9984
2023-02-27T09:57:51.806Z,10884
2023-02-27T09:58:51.519Z,10656
2023-02-27T09:59:52.790Z,8696
2023-02-27T10:00:51.318Z,8836
2023-02-27T10:01:51.239Z,8168
2023-02-27T10:02:51.879Z,8672
2023-02-27T10:03:51.453Z,9728
2023-02-27T10:04:51.787Z,10008
2023-02-27T10:05:51.661Z,10252
2023-02-27T10:06:51.383Z,9968
2023-02-27T10:07:51.616Z,9804
2023-02-27T10:08:51.102Z,9420
2023-02-27T10:09:51.608Z,9524
2023-02-27T10:10:51.059Z,9640
2023-02-27T10:11:51.332Z,9760
2023-02-27T10:12:51.621Z,9944
2023-02-27T10:13:51.504Z,9968
2023-02-27T10:14:51.492Z,10836
2023-02-27T10:15:50.981Z,10912
2023-02-27T10:16:51.665Z,11292
2023-02-27T10:17:51.430Z,11276
2023-02-27T10:18:51.438Z,10512
2023-02-27T10:19:50.988Z,11800
2023-02-27T10:20:51.406Z,15520
2023-02-27T10:21:51.118Z,13724
2023-02-27T10:22:51.152Z,13148
2023-02-27T10:23:51.379Z,11696
2023-02-27T10:24:51.087Z,11956
2023-02-27T10:25:51.418Z,14672
2023-02-27T10:26:51.326Z,14224
2023-02-27T10:27:51.318Z,13492
2023-02-27T10:28:51.353Z,12244
2023-02-27T10:29:50.451Z,11860
2023-02-27T10:30:51.172Z,11152
2023-02-27T10:31:51.495Z,10496
2023-02-27T10:32:50.915Z,11264
2023-02-27T10:33:51.200Z,12052
2023-02-27T10:34:51.226Z,10356
2023-02-27T10:35:51.428Z,10012
2023-02-27T10:36:50.589Z,11724
2023-02-27T10:37:50.830Z,12088
2023-02-27T10:38:51.089Z,10100
2023-02-27T10:39:51.091Z,9472
2023-02-27T10:40:51.038Z,9800
2023-02-27T10:41:50.757Z,11264
2023-02-27T10:42:51.036Z,8604
2023-02-27T10:43:50.862Z,9572
2023-02-27T10:44:51.085Z,12068
2023-02-27T10:45:50.739Z,12932
2023-02-27T10:46:54.077Z,12532
2023-02-27T10:47:50.973Z,12972
2023-02-27T10:48:50.678Z,14060
2023-02-27T10:49:50.368Z,13468
2023-02-27T10:50:50.862Z,12120
2023-02-27T10:51:50.602Z,13556
2023-02-27T10:52:50.614Z,12008
2023-02-27T10:53:50.822Z,11792
2023-02-27T10:54:50.650Z,12604
2023-02-27T10:55:50.261Z,12100
2023-02-27T10:56:50.551Z,11828
2023-02-27T10:57:50.758Z,11700
2023-02-27T10:58:50.464Z,11868
2023-02-27T10:59:50.480Z,11900
2023-02-27T11:00:50.789Z,12076
2023-02-27T11:01:50.952Z,12540
2023-02-27T11:02:50.664Z,12832
2023-02-27T11:03:50.415Z,13028
2023-02-27T11:04:50.860Z,13312
2023-02-27T11:05:50.623Z,12944
2023-02-27T11:06:50.590Z,11712
2023-02-27T11:07:50.345Z,11012
2023-02-27T11:08:52.484Z,10044
2023-02-27T11:09:50.317Z,10060
2023-02-27T11:10:50.527Z,10860
2023-02-27T11:11:50.504Z,10604
2023-02-27T11:12:50.255Z,9880
2023-02-27T11:13:50.240Z,9272
2023-02-27T11:14:50.202Z,8584
2023-02-27T11:15:50.648Z,8304
2023-02-27T11:16:50.593Z,8332
2023-02-27T11:17:50.394Z,8728
2023-02-27T11:18:50.133Z,9356
2023-02-27T11:19:50.119Z,9856
2023-02-27T11:20:49.835Z,10172
2023-02-27T11:21:50.071Z,9404
2023-02-27T11:22:49.545Z,8516
2023-02-27T11:23:50.298Z,8648
2023-02-27T11:24:50.042Z,8592
2023-02-27T11:25:50.253Z,8572
2023-02-27T11:26:49.986Z,8944
2023-02-27T11:27:50.261Z,9308
2023-02-27T11:28:49.688Z,9312
2023-02-27T11:29:49.936Z,9092
2023-02-27T11:30:50.249Z,8640
2023-02-27T11:31:50.461Z,9028
2023-02-27T11:32:50.253Z,9696
2023-02-27T11:33:49.616Z,10644
2023-02-27T11:34:49.839Z,10764
2023-02-27T11:35:50.239Z,10584
2023-02-27T11:36:50.098Z,10936
2023-02-27T11:37:49.880Z,11108
2023-02-27T11:38:49.773Z,10960
2023-02-27T11:39:49.767Z,10900
2023-02-27T11:40:49.987Z,11048
2023-02-27T11:41:49.796Z,11192
2023-02-27T11:42:49.462Z,11112
2023-02-27T11:43:49.783Z,10968
2023-02-27T11:44:57.387Z,10764
2023-02-27T11:46:53.575Z,9928
2023-02-27T11:47:03.519Z,9920
2023-02-27T11:48:06.352Z,10084
2023-02-27T11:49:03.417Z,10284
2023-02-27T11:50:03.278Z,10408
2023-02-27T11:51:03.117Z,10416
2023-02-27T11:52:03.361Z,10600
2023-02-27T11:53:02.828Z,10624
2023-02-27T11:54:03.088Z,10572
2023-02-27T11:55:03.066Z,10508
2023-02-27T11:56:02.940Z,10200
2023-02-27T11:57:03.272Z,9404
2023-02-27T11:58:03.010Z,8596
2023-02-27T11:59:02.713Z,8564
2023-02-27T12:00:03.215Z,8688
2023-02-27T12:01:03.193Z,8636
2023-02-27T12:02:03.192Z,8500
2023-02-27T12:03:03.419Z,8356
2023-02-27T12:04:03.610Z,8808
2023-02-27T12:05:03.120Z,9564
2023-02-27T12:06:02.623Z,10236
2023-02-27T12:07:03.177Z,9780
2023-02-27T12:08:03.052Z,9312
2023-02-27T12:09:03.044Z,9084
2023-02-27T12:10:03.026Z,8724
2023-02-27T12:11:32.288Z,9388
2023-02-27T12:12:02.962Z,9680
2023-02-27T12:13:02.883Z,10248
2023-02-27T12:14:04.132Z,10156
2023-02-27T12:15:03.264Z,8992
2023-02-27T12:16:03.082Z,7836
2023-02-27T12:17:02.905Z,7312
2023-02-27T12:18:02.625Z,7284
2023-02-27T12:19:02.894Z,7732
2023-02-27T12:20:02.955Z,7848
2023-02-27T12:21:02.321Z,8072
2023-02-27T12:22:02.780Z,7592
2023-02-27T12:23:02.802Z,8152
2023-02-27T12:24:02.490Z,9244
2023-02-27T12:25:02.598Z,9920
2023-02-27T12:26:02.794Z,9728
2023-02-27T12:27:02.272Z,9796
2023-02-27T12:28:02.663Z,9756
2023-02-27T12:29:01.909Z,9428
2023-02-27T12:30:02.396Z,8764
2023-02-27T12:31:02.380Z,9148
2023-02-27T12:32:03.322Z,9276
2023-02-27T12:33:02.575Z,9000
2023-02-27T12:34:02.588Z,9364
2023-02-27T12:35:02.337Z,9304
2023-02-27T12:36:02.918Z,8812
2023-02-27T12:37:02.527Z,9052
2023-02-27T12:38:02.537Z,9596
2023-02-27T12:39:02.240Z,9848
2023-02-27T12:40:02.543Z,9888
2023-02-27T12:41:02.156Z,10076
2023-02-27T12:42:02.395Z,9436
2023-02-27T12:43:02.411Z,8904
2023-02-27T12:44:02.126Z,8744
2023-02-27T12:45:01.850Z,9128
2023-02-27T12:46:02.625Z,8912
2023-02-27T12:47:02.078Z,9036
2023-02-27T12:48:02.108Z,10308
2023-02-27T12:49:02.289Z,10200
2023-02-27T12:50:02.321Z,9868
2023-02-27T12:51:02.024Z,10404
2023-02-27T12:52:02.333Z,11432
2023-02-27T12:53:02.203Z,11544
2023-02-27T12:54:02.187Z,11952
2023-02-27T12:55:01.910Z,12560
2023-02-27T12:56:01.868Z,12236
2023-02-27T12:57:01.899Z,11804
2023-02-27T12:58:01.854Z,11768
2023-02-27T12:59:01.825Z,12360
2023-02-27T13:00:02.077Z,12332
2023-02-27T13:01:02.381Z,12576
2023-02-27T13:02:02.047Z,11620
2023-02-27T13:03:02.027Z,10488
2023-02-27T13:04:02.252Z,10668
2023-02-27T13:05:01.996Z,8140
2023-02-27T13:06:01.763Z,7892
2023-02-27T13:07:01.452Z,8596
2023-02-27T13:08:02.022Z,10456
2023-02-27T13:09:01.643Z,12200
2023-02-27T13:10:01.670Z,14016
2023-02-27T13:11:01.612Z,12324
2023-02-27T13:12:01.629Z,9104
2023-02-27T13:13:01.315Z,7864
2023-02-27T13:14:01.824Z,9388
2023-02-27T13:15:01.819Z,9268
2023-02-27T13:16:01.581Z,9936
2023-02-27T13:17:01.522Z,5868
2023-02-27T13:18:01.505Z,6048
2023-02-27T13:19:01.770Z,5524
2023-02-27T13:20:01.716Z,5408
2023-02-27T13:21:01.690Z,5976
2023-02-27T13:22:01.733Z,6880
2023-02-27T13:23:01.446Z,6940
2023-02-27T13:24:01.713Z,9164
2023-02-27T13:25:01.639Z,7904
2023-02-27T13:26:01.501Z,8408
2023-02-27T13:27:01.331Z,9716
2023-02-27T13:28:01.317Z,12476
2023-02-27T13:29:01.297Z,9832
2023-02-27T13:30:01.015Z,10776
2023-02-27T13:31:01.626Z,8536
2023-02-27T13:32:02.070Z,8456
2023-02-27T13:33:02.033Z,6124
2023-02-27T13:34:00.749Z,5468
2023-02-27T13:35:01.451Z,5688
2023-02-27T13:36:01.620Z,6244
2023-02-27T13:37:01.434Z,7500
2023-02-27T13:38:01.236Z,8804
2023-02-27T13:39:01.120Z,7596
2023-02-27T13:40:01.508Z,7540
2023-02-27T13:41:01.077Z,7484
2023-02-27T13:42:01.351Z,7100
2023-02-27T13:43:01.089Z,7736
2023-02-27T13:44:01.277Z,7260
2023-02-27T13:45:01.261Z,5660
2023-02-27T13:46:00.805Z,4776
2023-02-27T13:47:00.871Z,4888
2023-02-27T13:48:04.003Z,6412
2023-02-27T13:49:00.653Z,7800
2023-02-27T13:50:01.175Z,8252
2023-02-27T13:51:00.380Z,6456
2023-02-27T13:52:00.868Z,5340
2023-02-27T13:53:00.887Z,6192
2023-02-27T13:54:01.130Z,6668
2023-02-27T13:55:14.950Z,5704
2023-02-27T13:56:00.886Z,5312
2023-02-27T13:57:01.072Z,5660
2023-02-27T13:58:00.501Z,6904
2023-02-27T13:59:02.893Z,6644
2023-02-27T14:00:00.991Z,5196
2023-02-27T14:01:01.228Z,4304
2023-02-27T14:02:00.673Z,5076
2023-02-27T14:03:07.366Z,4976
2023-02-27T14:04:00.885Z,6204
2023-02-27T14:05:02.762Z,9000
2023-02-27T14:06:00.831Z,10656
2023-02-27T14:07:00.598Z,8984